Terminal Aerodrome Forecast
Issued by NWS Blacksburg, VA

Home | Current Version | Previous Version | Text Only | Print | Product List | Glossary On
Versions: 1 2 3 4 5 6 7 8 9 10 11 12 13 14 15 16
000
FTUS41 KRNK 050822 AAA
TAFROA
TAF AMD
KROA 050822Z 0508/0606 00000KT 6SM BR OVC004
      TEMPO 0508/0510 2SM -DZ BR
     FM051000 29003KT P6SM BKN008 OVC060
     FM051300 29007KT P6SM BKN020 OVC250
     FM051500 31010G20KT P6SM BKN250
     FM052200 VRB05KT P6SM BKN150 OVC250=

USA.gov is the U.S. government's official web portal to all federal, state and local government web resources and services.